TimeEST,TemperatureF,Dew PointF,Humidity,Sea Level PressureIn,VisibilityMPH,Wind Direction,Wind SpeedMPH,Gust SpeedMPH,PrecipitationIn,Events,Conditions,WindDirDegrees,DateUTC
12:16 AM,23.0,19.4,86,29.99,10.0,WNW,9.2,-,N/A,,Clear,300,2012-12-30 05:16:00
12:35 AM,22.8,19.6,87,29.99,10.0,WNW,8.1,-,N/A,,Clear,300,2012-12-30 05:35:00
12:55 AM,23.0,19.8,87,29.99,10.0,WNW,8.1,-,N/A,,Clear,300,2012-12-30 05:55:00
1:16 AM,23.0,19.8,87,30.00,10.0,WNW,8.1,-,N/A,,Clear,300,2012-12-30 06:16:00
1:35 AM,23.0,19.9,88,30.00,10.0,WNW,5.8,-,N/A,,Clear,300,2012-12-30 06:35:00
1:55 AM,23.0,19.4,86,30.00,10.0,WNW,4.6,-,N/A,,Clear,290,2012-12-30 06:55:00
2:16 AM,23.0,19.4,86,30.01,10.0,WNW,4.6,-,N/A,,Scattered Clouds,300,2012-12-30 07:16:00
2:35 AM,23.5,19.0,83,30.02,10.0,WNW,4.6,-,N/A,,Mostly Cloudy,290,2012-12-30 07:35:00
2:55 AM,23.9,19.2,82,30.03,10.0,WNW,4.6,-,N/A,,Overcast,300,2012-12-30 07:55:00
3:16 AM,23.9,18.7,80,30.03,10.0,West,3.5,-,N/A,,Overcast,280,2012-12-30 08:16:00
3:35 AM,23.9,19.2,82,30.03,10.0,West,3.5,-,N/A,,Overcast,270,2012-12-30 08:35:00
3:55 AM,23.9,19.4,83,30.04,10.0,West,4.6,-,N/A,,Overcast,280,2012-12-30 08:55:00
4:15 AM,24.3,20.1,84,30.04,10.0,Calm,Calm,-,N/A,,Overcast,0,2012-12-30 09:15:00
4:35 AM,24.3,20.7,86,30.03,10.0,NNW,4.6,-,N/A,,Overcast,340,2012-12-30 09:35:00
4:55 AM,25.5,20.7,82,30.04,10.0,NW,3.5,-,N/A,,Overcast,310,2012-12-30 09:55:00
5:16 AM,25.7,21.6,84,30.04,10.0,WNW,4.6,-,N/A,,Overcast,300,2012-12-30 10:16:00
5:35 AM,25.9,21.2,82,30.05,10.0,WNW,10.4,-,N/A,,Overcast,290,2012-12-30 10:35:00
5:55 AM,25.7,21.9,86,30.05,7.0,WNW,4.6,-,N/A,Snow,Light Snow,290,2012-12-30 10:55:00
6:15 AM,25.5,22.1,87,30.06,10.0,WNW,6.9,-,N/A,,Overcast,300,2012-12-30 11:15:00
6:35 AM,25.5,21.9,86,30.07,10.0,WNW,6.9,-,N/A,Snow,Light Snow,290,2012-12-30 11:35:00
6:55 AM,25.5,21.0,83,30.08,10.0,West,6.9,-,N/A,,Overcast,280,2012-12-30 11:55:00
7:35 AM,24.8,17.8,75,30.09,10.0,WNW,3.5,-,N/A,,Overcast,290,2012-12-30 12:35:00
7:55 AM,24.6,17.8,75,30.10,10.0,West,4.6,-,N/A,,Overcast,280,2012-12-30 12:55:00
8:15 AM,24.8,18.5,77,30.10,10.0,West,4.6,-,N/A,Snow,Light Snow,270,2012-12-30 13:15:00
8:35 AM,24.6,18.3,77,30.10,10.0,West,5.8,-,N/A,,Overcast,280,2012-12-30 13:35:00
8:55 AM,24.8,18.3,76,30.10,10.0,West,6.9,-,N/A,,Overcast,260,2012-12-30 13:55:00
9:15 AM,24.8,18.9,78,30.11,10.0,West,6.9,-,N/A,,Overcast,280,2012-12-30 14:15:00
9:35 AM,24.8,17.4,74,30.11,10.0,West,11.5,16.1,N/A,,Overcast,280,2012-12-30 14:35:00
9:55 AM,24.8,16.5,71,30.11,10.0,West,10.4,-,N/A,,Overcast,280,2012-12-30 14:55:00
10:15 AM,25.0,16.9,71,30.12,10.0,West,11.5,16.1,N/A,,Overcast,270,2012-12-30 15:15:00
10:35 AM,25.3,16.5,69,30.12,10.0,West,12.7,18.4,N/A,,Overcast,280,2012-12-30 15:35:00
10:55 AM,24.8,15.8,69,30.12,10.0,West,10.4,-,N/A,,Overcast,270,2012-12-30 15:55:00
11:15 AM,25.3,16.3,69,30.12,10.0,West,12.7,19.6,N/A,,Overcast,280,2012-12-30 16:15:00
11:35 AM,25.3,16.7,70,30.12,10.0,WNW,12.7,16.1,N/A,,Overcast,290,2012-12-30 16:35:00
11:55 AM,25.5,17.2,71,30.11,10.0,West,11.5,-,N/A,,Overcast,270,2012-12-30 16:55:00
12:16 PM,26.2,17.4,69,30.10,10.0,West,11.5,16.1,N/A,,Mostly Cloudy,270,2012-12-30 17:16:00
12:35 PM,27.1,17.6,67,30.10,10.0,West,13.8,19.6,N/A,,Scattered Clouds,260,2012-12-30 17:35:00
12:55 PM,26.6,18.1,70,30.09,10.0,West,12.7,19.6,N/A,,Mostly Cloudy,270,2012-12-30 17:55:00
1:16 PM,27.0,18.9,72,30.09,10.0,West,12.7,-,N/A,,Overcast,270,2012-12-30 18:16:00
1:35 PM,27.0,19.0,72,30.09,10.0,West,11.5,-,N/A,,Overcast,270,2012-12-30 18:35:00
1:55 PM,27.0,19.0,72,30.08,10.0,West,13.8,-,N/A,,Overcast,260,2012-12-30 18:55:00
2:15 PM,27.1,19.6,73,30.08,10.0,West,10.4,19.6,N/A,,Overcast,260,2012-12-30 19:15:00
2:35 PM,27.3,20.3,75,30.08,10.0,West,12.7,16.1,N/A,,Overcast,260,2012-12-30 19:35:00
2:55 PM,27.5,19.9,73,30.08,10.0,WSW,10.4,19.6,N/A,,Overcast,250,2012-12-30 19:55:00
3:16 PM,27.5,20.1,74,30.08,10.0,WSW,11.5,18.4,N/A,,Overcast,250,2012-12-30 20:16:00
3:35 PM,27.5,20.7,75,30.08,10.0,SW,16.1,21.9,N/A,,Overcast,230,2012-12-30 20:35:00
3:55 PM,27.5,20.1,74,30.08,10.0,WSW,9.2,24.2,N/A,,Overcast,240,2012-12-30 20:55:00
4:16 PM,27.1,19.2,72,30.08,10.0,WSW,10.4,20.7,N/A,,Overcast,240,2012-12-30 21:16:00
4:35 PM,27.0,19.9,75,30.07,10.0,WSW,10.4,18.4,N/A,,Overcast,250,2012-12-30 21:35:00
4:55 PM,27.0,20.7,77,30.06,10.0,WSW,8.1,-,N/A,,Overcast,240,2012-12-30 21:55:00
5:15 PM,27.1,21.4,79,30.06,10.0,WSW,9.2,-,N/A,,Overcast,250,2012-12-30 22:15:00
5:40 PM,27.5,20.5,75,30.06,10.0,SW,12.7,20.7,N/A,,Overcast,220,2012-12-30 22:40:00
6:00 PM,27.5,19.9,73,30.05,10.0,WSW,11.5,20.7,N/A,,Overcast,240,2012-12-30 23:00:00
6:20 PM,27.5,20.7,75,30.04,10.0,SW,8.1,19.6,N/A,,Overcast,220,2012-12-30 23:20:00
6:35 PM,27.1,21.2,78,30.04,10.0,SSW,9.2,-,N/A,,Overcast,210,2012-12-30 23:35:00
6:55 PM,26.6,21.2,80,30.04,10.0,SSW,10.4,16.1,N/A,,Overcast,210,2012-12-30 23:55:00
7:15 PM,26.4,20.3,78,30.04,10.0,SSW,11.5,18.4,N/A,,Overcast,210,2012-12-31 00:15:00
7:35 PM,26.4,20.3,78,30.04,10.0,SSW,13.8,20.7,N/A,,Overcast,200,2012-12-31 00:35:00
7:55 PM,26.2,20.3,78,30.03,10.0,SSW,12.7,20.7,N/A,,Overcast,210,2012-12-31 00:55:00
8:15 PM,26.2,20.3,78,30.03,10.0,SSW,12.7,21.9,N/A,,Overcast,200,2012-12-31 01:15:00
8:35 PM,26.1,20.3,79,30.02,10.0,SSW,12.7,19.6,N/A,,Overcast,200,2012-12-31 01:35:00
8:55 PM,26.1,20.5,79,30.01,10.0,SSW,8.1,21.9,N/A,,Overcast,200,2012-12-31 01:55:00
9:15 PM,25.7,20.7,81,30.01,10.0,SSW,11.5,16.1,N/A,,Overcast,200,2012-12-31 02:15:00
9:35 PM,25.7,21.0,82,30.00,10.0,South,11.5,18.4,N/A,,Overcast,190,2012-12-31 02:35:00
9:55 PM,25.9,21.2,82,29.99,10.0,South,12.7,19.6,N/A,,Overcast,190,2012-12-31 02:55:00
10:15 PM,25.7,21.6,84,29.98,10.0,South,9.2,17.3,N/A,,Overcast,190,2012-12-31 03:15:00
10:35 PM,26.1,22.1,85,29.97,10.0,South,8.1,-,N/A,,Overcast,190,2012-12-31 03:35:00
10:56 PM,26.4,22.5,85,29.97,10.0,South,9.2,-,N/A,,Overcast,190,2012-12-31 03:56:00
11:15 PM,27.1,23.0,84,29.97,10.0,SSW,10.4,18.4,N/A,,Overcast,200,2012-12-31 04:15:00
11:35 PM,27.5,23.5,85,29.96,10.0,SSW,11.5,19.6,N/A,,Overcast,200,2012-12-31 04:35:00
11:55 PM,27.5,23.4,84,29.95,10.0,South,9.2,16.1,N/A,,Overcast,190,2012-12-31 04:55:00